KBTR/BTR METAR and TAF weather

Enter ICAO airport designator
Station Type Date Time Source
KBTR METAR 2020/01/22 20:53 UTC NOAA

KBTR 222053Z 10008KT 10SM SCT120 11/02 A3017 RMK AO2 SLP217 T01060022 56038


Station Type Date Time Source
KBTR Decoded METAR 2020/01/22 20:53 UTC NOAA

BATON ROUGE METRO RYAN FIELD, LA, United States (KBTR) 30-32N 91-09W 21M
Jan 22, 2020 - 03:53 PM EST / 2020.01.22 2053 UTC
Wind: from the E (100 degrees) at 9 MPH (8 KT):0
Visibility: 10 mile(s):0
Sky conditions: partly cloudy
Temperature: 51.1 F (10.6 C)
Dew Point: 36.0 F (2.2 C)
Relative Humidity: 56%
Pressure (altimeter): 30.17 in. Hg (1021 hPa)
Pressure tendency: 0.11 inches (3.8 hPa) lower than three hours ago
ob: KBTR 222053Z 10008KT 10SM SCT120 11/02 A3017 RMK AO2 SLP217 T01060022 56038
cycle: 21

Station Type Date Time Source
KBTR TAF 2020/01/22 18:39 UTC NOAA

TAF KBTR 221736Z 2218/2318 11007KT P6SM BKN200
FM230300 11009KT P6SM VCSH OVC090
FM230600 11008KT 5SM -SHRA BR OVC070
FM231200 11009KT 3SM -SHRA BR OVC008

Example: see airport list